Portada
METAR-TAF:

METAR-TAF

Aeroports :

Ningbo, Xina

latitud: 29-49-36N, longitud: 121-27-43E, altitud: 4 m

Observació

L'informe es va fer fa 43 minuts, a les 01:00 UTC
Vent 6 kt del Nord, variant entre Nord-Oest i Nord/Nord-Est
Temperatura 16°C
Humitat 51%
Pressió 1027 hPa
Visibilitat 10 km o més
Escasses núvols a una alçada de 4000 ft

METAR: ZSNB 140100Z 35003MPS 310V020 9999 FEW040 16/06 Q1027 NOSIG

Hora: 09:43 (01:43 UTC)

Pronòstic

L'informe es va fer fa 6 hores i 11 minuts, a les 19:32 UTC
Pronòstic vàlid del 14 a les 00 UTC al 14 a les 24 UTC
Vent 8 kt del Nord amb ràfegues de 17 kt
Visibilitat: 4000 m
Núvols disperses a una alçada de 4000 ft
boirina
Evolucionant progressivament
l' 14 a les 06 UTC al 14 a les 08 UTC
Vent 8 kt del Est/Sud-Est

TAF: ZSNB 131932Z 1400/1424 01004G09MPS 4000 BR SCT040 TX17/1406Z TN07/1421Z BECMG 1406/1408 12004MPS

Observacions i pronòstics meteorològics de més de 4000 aeroports (METAR i TAF).

Les estacions disponibles són els punts grocs i vermells al mapa.

Posi el ratolí al punt desitjat per veure el nom de l'estació.

Feu clic per veure les observacions i els pronòstics meteorològics.

Per canviar el mapa: feu clic els botons verds amb una creu de color negre per apropar; al botó verd amb un guió per allunyar la imatge; o en les fletxes verdes per a mapes adjacents.


METAR-TAF: